createdAt,value
2023-06-11T00:01:28.873Z,8.45
2023-06-11T00:03:56.144Z,8.30
2023-06-11T00:06:24.251Z,8.25
2023-06-11T00:08:53.718Z,8.10
2023-06-11T00:11:21.335Z,9.07
2023-06-11T00:13:48.498Z,9.00
2023-06-11T00:16:15.891Z,8.15
2023-06-11T00:18:43.273Z,8.45
2023-06-11T00:21:11.321Z,8.45
2023-06-11T00:23:38.808Z,8.45
2023-06-11T00:26:09.043Z,9.48
2023-06-11T00:28:36.119Z,7.97
2023-06-11T00:31:04.905Z,8.32
2023-06-11T00:33:31.819Z,8.57
2023-06-11T00:35:58.814Z,8.45
2023-06-11T00:38:25.727Z,8.57
2023-06-11T00:40:52.635Z,9.02
2023-06-11T00:43:22.660Z,8.82
2023-06-11T00:45:52.980Z,8.98
2023-06-11T00:48:23.088Z,8.63
2023-06-11T00:50:50.999Z,9.23
2023-06-11T00:53:19.039Z,8.90
2023-06-11T00:55:46.598Z,8.85
2023-06-11T00:58:18.582Z,8.15
2023-06-11T01:00:48.505Z,8.75
2023-06-11T01:03:19.263Z,8.90
2023-06-11T01:06:03.323Z,8.80
2023-06-11T01:08:31.450Z,9.27
2023-06-11T01:11:02.824Z,8.80
2023-06-11T01:13:30.077Z,9.32
2023-06-11T01:16:03.568Z,9.13
2023-06-11T01:18:32.132Z,8.80
2023-06-11T01:21:11.030Z,9.05
2023-06-11T01:23:42.770Z,8.45
2023-06-11T01:26:17.622Z,9.23
2023-06-11T01:28:46.320Z,8.90
2023-06-11T01:31:15.950Z,8.75
2023-06-11T01:33:46.013Z,9.52
2023-06-11T01:36:12.957Z,8.98
2023-06-11T01:38:43.494Z,8.70
2023-06-11T01:41:12.261Z,9.68
2023-06-11T01:43:39.275Z,9.45
2023-06-11T01:46:06.818Z,9.70
2023-06-11T01:48:34.031Z,8.95
2023-06-11T01:51:01.344Z,8.50
2023-06-11T01:53:28.303Z,9.43
2023-06-11T01:55:58.048Z,10.48
2023-06-11T01:58:25.028Z,9.32
2023-06-11T02:00:51.923Z,8.80
2023-06-11T02:03:19.055Z,10.15
2023-06-11T02:05:46.406Z,9.57
2023-06-11T02:08:13.284Z,10.10
2023-06-11T02:10:40.217Z,9.95
2023-06-11T02:13:07.073Z,9.68
2023-06-11T02:15:33.920Z,10.23
2023-06-11T02:18:00.860Z,10.70
2023-06-11T02:20:27.932Z,9.45
2023-06-11T02:22:54.852Z,10.55
2023-06-11T02:25:21.822Z,10.82
2023-06-11T02:27:50.332Z,10.07
2023-06-11T02:30:17.437Z,10.30
2023-06-11T02:32:45.615Z,10.38
2023-06-11T02:35:12.782Z,10.15
2023-06-11T02:37:39.998Z,10.73
2023-06-11T02:40:07.479Z,10.57
2023-06-11T02:42:34.320Z,11.48
2023-06-11T02:45:01.201Z,11.73
2023-06-11T02:47:28.121Z,11.80
2023-06-11T02:49:55.350Z,10.27
2023-06-11T02:52:22.550Z,11.65
2023-06-11T02:54:49.437Z,12.60
2023-06-11T02:57:16.355Z,13.35
2023-06-11T02:59:43.243Z,11.57
2023-06-11T03:02:10.171Z,12.73
2023-06-11T03:04:37.461Z,11.95
2023-06-11T03:07:04.724Z,13.10
2023-06-11T03:09:31.573Z,12.35
2023-06-11T03:11:58.434Z,11.75
2023-06-11T03:14:27.356Z,13.65
2023-06-11T03:16:54.332Z,12.93
2023-06-11T03:19:21.268Z,13.35
2023-06-11T03:21:48.584Z,14.85
2023-06-11T03:24:15.660Z,13.07
2023-06-11T03:26:42.760Z,13.63
2023-06-11T03:29:09.692Z,13.68
2023-06-11T03:31:36.679Z,12.90
2023-06-11T03:34:04.471Z,13.05
2023-06-11T03:36:31.380Z,13.82
2023-06-11T03:38:58.227Z,14.15
2023-06-11T03:41:25.075Z,13.02
2023-06-11T03:43:51.970Z,13.25
2023-06-11T03:46:20.968Z,13.75
2023-06-11T03:48:48.002Z,13.82
2023-06-11T03:51:15.723Z,13.40
2023-06-11T03:53:42.668Z,12.63
2023-06-11T03:56:09.506Z,12.93
2023-06-11T03:58:36.420Z,13.52
2023-06-11T04:01:03.351Z,14.00
2023-06-11T04:03:30.414Z,13.85
2023-06-11T04:05:57.393Z,12.60
2023-06-11T04:08:24.291Z,13.15
2023-06-11T04:10:51.259Z,13.13
2023-06-11T04:13:18.141Z,13.95
2023-06-11T04:15:45.029Z,12.85
2023-06-11T04:18:12.668Z,13.20
2023-06-11T04:20:39.582Z,12.88
2023-06-11T04:23:07.735Z,13.75
2023-06-11T04:25:37.442Z,12.40
2023-06-11T04:28:04.538Z,13.07
2023-06-11T04:30:32.689Z,12.90
2023-06-11T04:32:59.645Z,13.45
2023-06-11T04:35:26.643Z,12.27
2023-06-11T04:37:54.652Z,13.68
2023-06-11T04:40:21.982Z,12.73
2023-06-11T04:42:49.582Z,13.77
2023-06-11T04:45:20.284Z,13.63
2023-06-11T04:47:47.596Z,13.30
2023-06-11T04:50:22.223Z,14.05
2023-06-11T04:52:52.903Z,13.77
2023-06-11T04:55:22.842Z,13.38
2023-06-11T04:57:50.835Z,12.93
2023-06-11T05:00:18.510Z,12.90
2023-06-11T05:02:46.011Z,14.15
2023-06-11T05:05:14.401Z,13.45
2023-06-11T05:07:42.999Z,13.13
2023-06-11T05:10:10.194Z,13.18
2023-06-11T05:12:38.113Z,13.57
2023-06-11T05:15:05.582Z,15.13
2023-06-11T05:17:34.198Z,14.40
2023-06-11T05:20:01.152Z,13.68
2023-06-11T05:22:28.183Z,14.20
2023-06-11T05:24:55.157Z,13.57
2023-06-11T05:27:23.176Z,13.00
2023-06-11T05:29:50.057Z,14.40
2023-06-11T05:32:17.259Z,15.23
2023-06-11T05:34:44.420Z,13.68
2023-06-11T05:37:11.458Z,14.23
2023-06-11T05:39:38.368Z,14.00
2023-06-11T05:42:05.499Z,13.15
2023-06-11T05:44:32.368Z,14.50
2023-06-11T05:46:59.410Z,13.07
2023-06-11T05:49:26.395Z,14.38
2023-06-11T05:51:53.419Z,13.50
2023-06-11T05:54:20.845Z,13.60
2023-06-11T05:56:47.913Z,14.20
2023-06-11T05:59:14.828Z,13.65
2023-06-11T06:01:46.472Z,12.60
2023-06-11T06:04:15.297Z,13.80
2023-06-11T06:06:42.265Z,13.93
2023-06-11T06:09:09.124Z,13.07
2023-06-11T06:11:36.101Z,12.70
2023-06-11T06:14:04.272Z,13.30
2023-06-11T06:16:32.796Z,13.10
2023-06-11T06:18:59.976Z,12.27
2023-06-11T06:21:26.934Z,12.20
2023-06-11T06:23:53.945Z,12.90
2023-06-11T06:26:24.099Z,12.95
2023-06-11T06:28:51.112Z,12.57
2023-06-11T06:31:18.159Z,12.40
2023-06-11T06:33:46.154Z,12.07
2023-06-11T06:36:13.132Z,12.15
2023-06-11T06:38:41.635Z,11.85
2023-06-11T06:41:08.624Z,11.32
2023-06-11T06:43:35.989Z,12.13
2023-06-11T06:46:02.953Z,10.25
2023-06-11T06:48:29.985Z,12.20
2023-06-11T06:50:57.167Z,10.73
2023-06-11T06:53:24.070Z,10.73
2023-06-11T06:55:53.326Z,10.13
2023-06-11T06:58:20.618Z,9.93
2023-06-11T07:00:47.560Z,10.52
2023-06-11T07:03:17.300Z,10.02
2023-06-11T07:05:44.966Z,10.40
2023-06-11T07:08:13.467Z,10.00
2023-06-11T07:10:44.054Z,10.50
2023-06-11T07:13:14.096Z,9.70
2023-06-11T07:15:41.070Z,10.55
2023-06-11T07:18:08.025Z,10.90
2023-06-11T07:20:35.036Z,10.98
2023-06-11T07:23:02.028Z,11.07
2023-06-11T07:25:32.084Z,10.52
2023-06-11T07:28:02.608Z,11.77
2023-06-11T07:30:31.283Z,10.57
2023-06-11T07:32:58.595Z,10.38
2023-06-11T07:35:25.794Z,9.95
2023-06-11T07:37:52.757Z,10.32
2023-06-11T07:40:20.913Z,10.10
2023-06-11T07:42:48.063Z,9.43
2023-06-11T07:45:16.343Z,9.48
2023-06-11T07:47:43.433Z,11.70
2023-06-11T07:50:11.437Z,9.88
2023-06-11T07:52:38.531Z,9.60
2023-06-11T07:55:05.986Z,10.70
2023-06-11T07:57:32.831Z,11.40
2023-06-11T07:59:59.692Z,9.38
2023-06-11T08:02:27.748Z,9.73
2023-06-11T08:04:54.809Z,10.38
2023-06-11T08:07:21.715Z,9.70
2023-06-11T08:09:48.652Z,9.93
2023-06-11T08:12:15.578Z,9.15
2023-06-11T08:14:42.453Z,9.88
2023-06-11T08:17:10.089Z,9.38
2023-06-11T08:19:37.141Z,9.43
2023-06-11T08:22:04.119Z,10.18
2023-06-11T08:24:32.024Z,10.55
2023-06-11T08:26:59.020Z,10.88
2023-06-11T08:29:25.962Z,9.88
2023-06-11T08:31:52.930Z,10.65
2023-06-11T08:34:19.967Z,9.63
2023-06-11T08:36:46.978Z,10.20
2023-06-11T08:39:14.325Z,10.73
2023-06-11T08:41:41.237Z,9.88
2023-06-11T08:44:08.092Z,9.32
2023-06-11T08:46:36.665Z,9.65
2023-06-11T08:49:07.947Z,9.43
2023-06-11T08:51:38.894Z,10.32
2023-06-11T08:54:09.355Z,10.75
2023-06-11T08:56:36.349Z,9.48
2023-06-11T08:59:03.419Z,8.90
2023-06-11T09:01:31.206Z,10.07
2023-06-11T09:03:58.740Z,9.80
2023-06-11T09:06:25.864Z,8.90
2023-06-11T09:08:59.940Z,9.18
2023-06-11T09:11:37.511Z,8.63
2023-06-11T09:14:04.919Z,12.43
2023-06-11T09:16:45.513Z,10.55
2023-06-11T09:19:13.976Z,9.45
2023-06-11T09:21:54.759Z,11.18
2023-06-11T09:24:22.299Z,12.50
2023-06-11T09:26:56.810Z,13.93
2023-06-11T09:29:24.347Z,12.98
2023-06-11T09:32:10.057Z,13.65
2023-06-11T09:34:43.078Z,12.65
2023-06-11T09:37:13.031Z,12.90
2023-06-11T09:39:41.112Z,13.52
2023-06-11T09:42:13.583Z,14.45
2023-06-11T09:44:40.690Z,11.73
2023-06-11T09:47:10.501Z,13.93
2023-06-11T09:49:37.601Z,11.70
2023-06-11T09:52:04.876Z,12.85
2023-06-11T09:54:31.790Z,12.70
2023-06-11T09:56:58.811Z,11.90
2023-06-11T09:59:25.733Z,10.55
2023-06-11T10:01:52.682Z,10.77
2023-06-11T10:04:19.634Z,11.57
2023-06-11T10:06:48.088Z,10.35
2023-06-11T10:09:15.586Z,11.85
2023-06-11T10:11:42.562Z,10.30
2023-06-11T10:14:13.741Z,10.55
2023-06-11T10:16:40.950Z,10.23
2023-06-11T10:19:08.950Z,10.55
2023-06-11T10:21:50.517Z,9.02
2023-06-11T10:24:24.705Z,8.98
2023-06-11T10:27:13.887Z,9.55
2023-06-11T10:29:51.139Z,8.27
2023-06-11T10:32:21.740Z,7.80
2023-06-11T10:35:05.976Z,8.25
2023-06-11T10:37:38.306Z,7.97
2023-06-11T10:40:07.233Z,9.15
2023-06-11T10:42:39.129Z,7.40
2023-06-11T10:45:15.578Z,9.02
2023-06-11T10:47:50.922Z,8.32
2023-06-11T10:50:24.917Z,9.10
2023-06-11T10:52:52.938Z,8.73
2023-06-11T10:55:21.734Z,8.25
2023-06-11T10:57:55.195Z,8.60
2023-06-11T11:00:22.714Z,8.02
2023-06-11T11:02:50.036Z,9.00
2023-06-11T11:05:17.634Z,8.32
2023-06-11T11:07:47.267Z,8.50
2023-06-11T11:10:20.601Z,6.95
2023-06-11T11:12:48.486Z,7.30
2023-06-11T11:15:15.664Z,8.00
2023-06-11T11:17:43.579Z,7.95
2023-06-11T11:20:15.433Z,6.43
2023-06-11T11:22:42.417Z,6.95
2023-06-11T11:25:10.625Z,5.50
2023-06-11T11:27:40.271Z,7.72
2023-06-11T11:30:07.863Z,6.35
2023-06-11T11:32:36.139Z,6.07
2023-06-11T11:35:04.828Z,6.68
2023-06-11T11:37:32.096Z,7.10
2023-06-11T11:40:08.341Z,6.75
2023-06-11T11:42:51.722Z,6.68
2023-06-11T11:45:22.655Z,7.20
2023-06-11T11:47:53.342Z,7.25
2023-06-11T11:50:28.398Z,6.15
2023-06-11T11:53:05.393Z,7.72
2023-06-11T11:55:56.238Z,8.25
2023-06-11T11:58:28.883Z,8.68
2023-06-11T12:00:59.338Z,7.95
2023-06-11T12:03:28.189Z,8.80
2023-06-11T12:06:05.320Z,9.65
2023-06-11T12:08:32.858Z,9.38
2023-06-11T12:11:00.514Z,9.77
2023-06-11T12:13:27.410Z,9.18
2023-06-11T12:15:54.479Z,10.25
2023-06-11T12:18:21.576Z,10.00
2023-06-11T12:20:48.476Z,10.30
2023-06-11T12:23:15.717Z,11.93
2023-06-11T12:25:43.803Z,10.25
2023-06-11T12:28:10.830Z,10.35
2023-06-11T12:30:37.720Z,9.63
2023-06-11T12:33:04.733Z,9.57
2023-06-11T12:35:31.842Z,8.75
2023-06-11T12:37:59.068Z,9.05
2023-06-11T12:40:26.276Z,9.35
2023-06-11T12:42:58.274Z,9.60
2023-06-11T12:45:26.858Z,10.57
2023-06-11T12:47:54.013Z,9.32
2023-06-11T12:50:25.116Z,9.75
2023-06-11T12:52:54.657Z,9.88
2023-06-11T12:55:21.932Z,9.30
2023-06-11T12:57:50.137Z,9.77
2023-06-11T13:00:17.402Z,9.25
2023-06-11T13:02:45.307Z,9.45
2023-06-11T13:05:12.476Z,10.30
2023-06-11T13:07:39.414Z,9.30
2023-06-11T13:10:06.752Z,9.57
2023-06-11T13:12:34.023Z,10.02
2023-06-11T13:15:01.008Z,9.88
2023-06-11T13:17:28.150Z,9.93
2023-06-11T13:19:56.413Z,12.88
2023-06-11T13:22:23.512Z,12.20
2023-06-11T13:24:50.704Z,13.30
2023-06-11T13:27:17.712Z,14.30
2023-06-11T13:29:44.677Z,14.07
2023-06-11T13:32:11.606Z,12.70
2023-06-11T13:34:38.963Z,11.52
2023-06-11T13:37:06.254Z,13.00
2023-06-11T13:39:34.218Z,12.80
2023-06-11T13:42:02.375Z,15.73
2023-06-11T13:44:29.314Z,15.23
2023-06-11T13:46:56.222Z,14.50
2023-06-11T13:49:26.562Z,14.30
2023-06-11T13:51:55.184Z,13.65
2023-06-11T13:54:22.153Z,15.32
2023-06-11T13:56:49.068Z,15.57
2023-06-11T13:59:16.091Z,17.48
2023-06-11T14:01:43.343Z,16.95
2023-06-11T14:04:10.939Z,17.73
2023-06-11T14:06:38.036Z,16.77
2023-06-11T14:09:05.467Z,15.73
2023-06-11T14:11:32.607Z,17.08
2023-06-11T14:14:00.403Z,15.60
2023-06-11T14:16:28.269Z,16.25
2023-06-11T14:18:55.237Z,17.30
2023-06-11T14:21:22.237Z,17.83
2023-06-11T14:23:49.330Z,18.45
2023-06-11T14:26:16.264Z,17.38
2023-06-11T14:28:43.188Z,21.98
2023-06-11T14:31:10.120Z,20.00
2023-06-11T14:33:38.090Z,17.80
2023-06-11T14:36:07.307Z,19.85
2023-06-11T14:38:34.920Z,18.08
2023-06-11T14:41:01.858Z,18.27
2023-06-11T14:43:28.769Z,20.20
2023-06-11T14:45:55.865Z,18.40
2023-06-11T14:48:22.767Z,18.70
2023-06-11T14:50:49.686Z,16.98
2023-06-11T14:53:16.760Z,17.90
2023-06-11T14:55:44.227Z,16.52
2023-06-11T14:58:11.261Z,14.82
2023-06-11T15:00:38.257Z,15.93
2023-06-11T15:03:05.238Z,16.00
2023-06-11T15:05:32.328Z,15.32
2023-06-11T15:07:59.213Z,16.23
2023-06-11T15:10:27.529Z,15.82
2023-06-11T15:12:56.090Z,17.40
2023-06-11T15:15:23.132Z,15.07
2023-06-11T15:17:50.094Z,15.90
2023-06-11T15:20:16.971Z,14.35
2023-06-11T15:22:44.033Z,13.48
2023-06-11T15:25:10.969Z,14.98
2023-06-11T15:27:37.974Z,15.48
2023-06-11T15:30:05.707Z,14.95
2023-06-11T15:32:32.626Z,15.05
2023-06-11T15:34:59.636Z,15.23
2023-06-11T15:37:26.550Z,14.25
2023-06-11T15:39:53.592Z,14.85
2023-06-11T15:42:20.704Z,14.40
2023-06-11T15:44:49.790Z,15.43
2023-06-11T15:47:17.590Z,14.75
2023-06-11T15:49:44.602Z,13.90
2023-06-11T15:52:11.528Z,15.30
2023-06-11T15:54:38.693Z,13.50
2023-06-11T15:57:07.395Z,14.75
2023-06-11T15:59:34.414Z,13.40
2023-06-11T16:02:02.370Z,14.30
2023-06-11T16:04:31.526Z,14.63
2023-06-11T16:07:01.279Z,13.55
2023-06-11T16:09:28.791Z,14.07
2023-06-11T16:11:55.735Z,13.55
2023-06-11T16:14:22.651Z,13.23
2023-06-11T16:16:49.577Z,13.57
2023-06-11T16:19:16.856Z,14.20
2023-06-11T16:21:43.762Z,14.18
2023-06-11T16:24:10.801Z,13.27
2023-06-11T16:26:38.053Z,13.50
2023-06-11T16:29:05.043Z,13.68
2023-06-11T16:31:32.169Z,13.65
2023-06-11T16:34:00.394Z,14.23
2023-06-11T16:36:29.227Z,13.35
2023-06-11T16:38:57.164Z,14.43
2023-06-11T16:41:27.317Z,13.93
2023-06-11T16:43:54.283Z,14.13
2023-06-11T16:46:21.342Z,12.65
2023-06-11T16:48:48.529Z,12.18
2023-06-11T16:51:15.508Z,12.32
2023-06-11T16:53:42.462Z,12.32
2023-06-11T16:56:09.362Z,11.98
2023-06-11T16:58:37.261Z,12.73
2023-06-11T17:01:04.221Z,13.05
2023-06-11T17:03:31.641Z,11.15
2023-06-11T17:05:58.668Z,12.95
2023-06-11T17:08:25.634Z,13.18
2023-06-11T17:10:52.603Z,13.65
2023-06-11T17:13:19.501Z,12.27
2023-06-11T17:15:46.623Z,12.05
2023-06-11T17:18:13.658Z,12.60
2023-06-11T17:20:41.035Z,12.77
2023-06-11T17:23:08.205Z,12.23
2023-06-11T17:25:35.146Z,13.05
2023-06-11T17:28:02.036Z,12.10
2023-06-11T17:30:29.022Z,13.18
2023-06-11T17:32:56.780Z,12.40
2023-06-11T17:35:23.755Z,12.68
2023-06-11T17:37:50.604Z,12.50
2023-06-11T17:40:18.002Z,13.55
2023-06-11T17:42:46.368Z,12.68
2023-06-11T17:45:13.367Z,12.27
2023-06-11T17:47:40.829Z,13.10
2023-06-11T17:50:08.451Z,11.63
2023-06-11T17:52:35.778Z,11.98
2023-06-11T17:55:02.637Z,12.55
2023-06-11T17:57:29.529Z,12.65
2023-06-11T17:59:56.457Z,12.38
2023-06-11T18:02:24.362Z,11.57
2023-06-11T18:04:51.272Z,10.57
2023-06-11T18:07:18.242Z,10.57
2023-06-11T18:09:45.169Z,10.98
2023-06-11T18:12:12.067Z,10.88
2023-06-11T18:14:38.923Z,11.45
2023-06-11T18:17:06.274Z,11.75
2023-06-11T18:19:34.291Z,11.38
2023-06-11T18:22:01.347Z,11.52
2023-06-11T18:24:32.365Z,12.95
2023-06-11T18:26:59.294Z,11.65
2023-06-11T18:29:28.442Z,11.77
2023-06-11T18:31:55.856Z,11.70
2023-06-11T18:34:22.740Z,11.57
2023-06-11T18:36:49.644Z,10.32
2023-06-11T18:39:16.922Z,11.40
2023-06-11T18:41:43.791Z,11.82
2023-06-11T18:44:10.788Z,11.63
2023-06-11T18:46:40.229Z,10.63
2023-06-11T18:49:07.474Z,10.77
2023-06-11T18:51:34.383Z,10.02
2023-06-11T18:54:02.973Z,11.05
2023-06-11T18:56:30.170Z,10.13
2023-06-11T18:58:57.088Z,9.77
2023-06-11T19:01:24.054Z,9.32
2023-06-11T19:03:51.724Z,10.10
2023-06-11T19:06:18.707Z,9.07
2023-06-11T19:08:45.773Z,10.07
2023-06-11T19:11:12.832Z,9.13
2023-06-11T19:13:43.520Z,8.55
2023-06-11T19:16:10.412Z,8.00
2023-06-11T19:18:37.342Z,7.93
2023-06-11T19:21:04.196Z,8.30
2023-06-11T19:23:31.150Z,8.15
2023-06-11T19:25:58.109Z,8.10
2023-06-11T19:28:24.992Z,8.98
2023-06-11T19:30:52.031Z,9.35
2023-06-11T19:33:19.116Z,9.73
2023-06-11T19:35:46.047Z,9.40
2023-06-11T19:38:13.540Z,10.10
2023-06-11T19:40:40.485Z,11.25
2023-06-11T19:43:07.450Z,9.95
2023-06-11T19:45:34.329Z,9.95
2023-06-11T19:48:01.267Z,10.60
2023-06-11T19:50:28.297Z,11.30
2023-06-11T19:52:55.381Z,10.35
2023-06-11T19:55:24.235Z,9.48
2023-06-11T19:57:51.418Z,9.88
2023-06-11T20:00:18.728Z,10.30
2023-06-11T20:02:45.610Z,10.15
2023-06-11T20:05:12.580Z,11.23
2023-06-11T20:07:39.501Z,12.73
2023-06-11T20:10:07.795Z,13.60
2023-06-11T20:12:34.685Z,13.85
2023-06-11T20:15:01.690Z,13.18
2023-06-11T20:17:29.714Z,11.93
2023-06-11T20:19:56.596Z,11.35
2023-06-11T20:22:23.526Z,10.40
2023-06-11T20:24:50.383Z,10.98
2023-06-11T20:27:17.245Z,9.52
2023-06-11T20:29:44.297Z,9.00
2023-06-11T20:32:11.363Z,8.82
2023-06-11T20:34:38.653Z,9.60
2023-06-11T20:37:06.120Z,10.27
2023-06-11T20:39:32.984Z,9.93
2023-06-11T20:41:59.827Z,9.60
2023-06-11T20:44:27.187Z,9.50
2023-06-11T20:46:54.132Z,9.93
2023-06-11T20:49:21.160Z,10.80
2023-06-11T20:51:48.106Z,9.18
2023-06-11T20:54:15.152Z,9.07
2023-06-11T20:56:42.135Z,9.57
2023-06-11T20:59:10.926Z,9.18
2023-06-11T21:01:38.106Z,8.52
2023-06-11T21:04:05.344Z,7.30
2023-06-11T21:06:32.306Z,7.25
2023-06-11T21:08:59.237Z,8.23
2023-06-11T21:11:27.854Z,7.88
2023-06-11T21:14:12.155Z,7.25
2023-06-11T21:16:41.030Z,8.68
2023-06-11T21:19:08.034Z,6.88
2023-06-11T21:21:35.142Z,8.07
2023-06-11T21:24:03.585Z,9.02
2023-06-11T21:26:30.699Z,8.38
2023-06-11T21:28:58.189Z,9.05
2023-06-11T21:31:25.225Z,8.88
2023-06-11T21:33:52.236Z,8.68
2023-06-11T21:36:19.645Z,9.68
2023-06-11T21:38:46.497Z,9.30
2023-06-11T21:41:13.330Z,10.00
2023-06-11T21:43:40.345Z,9.20
2023-06-11T21:46:07.773Z,8.73
2023-06-11T21:48:34.620Z,9.20
2023-06-11T21:51:01.481Z,9.73
2023-06-11T21:53:29.748Z,9.82
2023-06-11T21:55:56.578Z,9.68
2023-06-11T21:58:23.414Z,10.10
2023-06-11T22:00:50.350Z,10.48
2023-06-11T22:03:18.354Z,9.35
2023-06-11T22:05:46.892Z,11.43
2023-06-11T22:08:14.552Z,11.82
2023-06-11T22:10:41.607Z,10.65
2023-06-11T22:13:08.522Z,11.50
2023-06-11T22:15:35.677Z,10.63
2023-06-11T22:18:05.231Z,10.82
2023-06-11T22:20:33.642Z,11.25
2023-06-11T22:23:01.196Z,10.57
2023-06-11T22:25:28.183Z,11.48
2023-06-11T22:27:55.124Z,11.93
2023-06-11T22:30:22.016Z,10.07
2023-06-11T22:32:49.015Z,11.05
2023-06-11T22:35:16.046Z,11.90
2023-06-11T22:37:42.955Z,11.73
2023-06-11T22:40:10.178Z,12.82
2023-06-11T22:42:37.332Z,12.80
2023-06-11T22:45:04.404Z,12.55
2023-06-11T22:47:34.108Z,12.57
2023-06-11T22:50:01.409Z,11.50
2023-06-11T22:52:30.123Z,11.52
2023-06-11T22:54:57.463Z,11.48
2023-06-11T22:57:24.378Z,12.10
2023-06-11T22:59:52.204Z,12.82
2023-06-11T23:02:19.608Z,12.48
2023-06-11T23:04:46.591Z,12.55
2023-06-11T23:07:18.257Z,12.88
2023-06-11T23:09:45.403Z,12.70
2023-06-11T23:12:15.101Z,14.07
2023-06-11T23:14:41.979Z,14.13
2023-06-11T23:17:10.865Z,13.68
2023-06-11T23:19:38.813Z,14.30
2023-06-11T23:22:08.657Z,19.88
2023-06-11T23:24:40.761Z,16.58
2023-06-11T23:27:08.829Z,17.23
2023-06-11T23:29:36.056Z,18.42
2023-06-11T23:32:03.935Z,18.77
2023-06-11T23:34:31.162Z,20.05
2023-06-11T23:36:58.217Z,21.10
2023-06-11T23:39:26.930Z,22.30
2023-06-11T23:41:53.860Z,21.60
2023-06-11T23:44:21.757Z,21.10
2023-06-11T23:46:48.695Z,22.25
2023-06-11T23:49:15.759Z,24.40
2023-06-11T23:51:46.040Z,22.58
2023-06-11T23:54:14.292Z,23.70
2023-06-11T23:56:41.241Z,23.85
2023-06-11T23:59:08.163Z,28.02
